WUK8380 EGGW-LEBL
Flight info
| Callsign | WUK8380 |
|---|---|
| Flight time | 1h 49m |
| Altitude | 33000 |
| Route | RODNI N27 ICTAM Q63 CPT N859 VAPID UN859 SOPIL DCT BALAN DCT EVPOK DCT NARAK DCT GAI DCT LOMRA DCT ROCAN DCT PUMAL |
| Aircraft | A21N/M-SDE1E2E3FGIJ1J4RWXY/LB1 |
Departure
| Time | 2026-05-07 11:49 |
|---|---|
| Airport | London Luton Airport (EGGW) |
Arrival
| Time | 2026-05-07 13:38 |
|---|---|
| Airport | Josep Tarradellas Barcelona-El Prat Airport (LEBL) |
| Time | Latitude | Longitude | Altitude | Speed | Heading |
|---|---|---|---|---|---|
| 2026-05-07 10:58 | 51.87969 | -0.37266 | 512 ft | 0 kts | 161° |
| 2026-05-07 11:39 | 51.87989 | -0.37276 | 514 ft | 0 kts | 161° |
| 2026-05-07 11:39 | 51.88009 | -0.37285 | 514 ft | 0 kts | 191° |
| 2026-05-07 11:39 | 51.88028 | -0.37264 | 514 ft | 0 kts | 238° |
| 2026-05-07 11:39 | 51.88039 | -0.37225 | 514 ft | 0 kts | 251° |
| 2026-05-07 11:40 | 51.88047 | -0.37194 | 514 ft | 0 kts | 234° |
| 2026-05-07 11:40 | 51.88065 | -0.37169 | 514 ft | 0 kts | 193° |
| 2026-05-07 11:40 | 51.88089 | -0.37171 | 514 ft | 0 kts | 162° |
| 2026-05-07 11:40 | 51.88107 | -0.37180 | 516 ft | 0 kts | 161° |
| 2026-05-07 11:43 | 51.88105 | -0.37179 | 516 ft | 1 kts | 161° |
| 2026-05-07 11:44 | 51.88086 | -0.37169 | 514 ft | 4 kts | 162° |
| 2026-05-07 11:44 | 51.88045 | -0.37147 | 514 ft | 8 kts | 161° |
| 2026-05-07 11:44 | 51.87986 | -0.37116 | 514 ft | 10 kts | 162° |
| 2026-05-07 11:44 | 51.87918 | -0.37079 | 514 ft | 11 kts | 161° |
| 2026-05-07 11:45 | 51.87838 | -0.37036 | 518 ft | 13 kts | 162° |
| 2026-05-07 11:45 | 51.87744 | -0.36986 | 524 ft | 15 kts | 161° |
| 2026-05-07 11:45 | 51.87652 | -0.36959 | 529 ft | 11 kts | 200° |
| 2026-05-07 11:45 | 51.87614 | -0.37064 | 527 ft | 12 kts | 254° |
| 2026-05-07 11:46 | 51.87590 | -0.37200 | 527 ft | 13 kts | 253° |
| 2026-05-07 11:46 | 51.87584 | -0.37345 | 527 ft | 10 kts | 275° |
| 2026-05-07 11:46 | 51.87562 | -0.37450 | 527 ft | 11 kts | 218° |
| 2026-05-07 11:46 | 51.87504 | -0.37534 | 527 ft | 12 kts | 246° |
| 2026-05-07 11:47 | 51.87480 | -0.37674 | 529 ft | 14 kts | 255° |
| 2026-05-07 11:47 | 51.87454 | -0.37825 | 528 ft | 15 kts | 254° |
| 2026-05-07 11:47 | 51.87423 | -0.37985 | 529 ft | 12 kts | 241° |
| 2026-05-07 11:47 | 51.87356 | -0.38076 | 528 ft | 13 kts | 206° |
| 2026-05-07 11:48 | 51.87293 | -0.38118 | 528 ft | 5 kts | 188° |
| 2026-05-07 11:48 | 51.87251 | -0.38108 | 529 ft | 7 kts | 132° |
| 2026-05-07 11:48 | 51.87252 | -0.38051 | 529 ft | 0 kts | 71° |
| 2026-05-07 11:48 | 51.87287 | -0.37861 | 530 ft | 51 kts | 75° |
| 2026-05-07 11:49 | 51.87451 | -0.36914 | 528 ft | 121 kts | 74° |
| 2026-05-07 11:49 | 51.87733 | -0.35287 | 657 ft | 166 kts | 75° |
| 2026-05-07 11:49 | 51.88069 | -0.33406 | 1271 ft | 185 kts | 75° |
| 2026-05-07 11:49 | 51.88446 | -0.31296 | 1943 ft | 203 kts | 75° |
| 2026-05-07 11:50 | 51.88850 | -0.29014 | 2548 ft | 219 kts | 75° |
| 2026-05-07 11:50 | 51.89274 | -0.26582 | 3193 ft | 227 kts | 77° |
| 2026-05-07 11:50 | 51.89287 | -0.24057 | 3920 ft | 228 kts | 105° |
| 2026-05-07 11:50 | 51.88533 | -0.21818 | 4619 ft | 230 kts | 134° |
| 2026-05-07 11:51 | 51.87189 | -0.20416 | 5278 ft | 233 kts | 163° |
| 2026-05-07 11:51 | 51.85573 | -0.20208 | 5926 ft | 237 kts | 191° |
| 2026-05-07 11:51 | 51.84067 | -0.21263 | 6568 ft | 240 kts | 219° |
| 2026-05-07 11:51 | 51.83035 | -0.23369 | 7185 ft | 242 kts | 248° |
| 2026-05-07 11:52 | 51.82726 | -0.26022 | 7818 ft | 243 kts | 271° |
| 2026-05-07 11:52 | 51.82898 | -0.28742 | 8491 ft | 245 kts | 279° |
| 2026-05-07 11:52 | 51.83201 | -0.31548 | 8948 ft | 260 kts | 281° |
| 2026-05-07 11:52 | 51.83431 | -0.33475 | 9268 ft | 269 kts | 284° |
| 2026-05-07 11:53 | 51.83723 | -0.36546 | 9764 ft | 280 kts | 265° |
| 2026-05-07 11:53 | 51.83105 | -0.39493 | 10261 ft | 287 kts | 235° |
| 2026-05-07 11:53 | 51.81886 | -0.42112 | 10807 ft | 296 kts | 236° |
| 2026-05-07 11:53 | 51.80786 | -0.44851 | 11314 ft | 305 kts | 237° |
| 2026-05-07 11:54 | 51.79640 | -0.47758 | 11820 ft | 315 kts | 237° |
| 2026-05-07 11:54 | 51.78429 | -0.50800 | 12347 ft | 324 kts | 237° |
| 2026-05-07 11:54 | 51.77738 | -0.52522 | 12631 ft | 329 kts | 237° |
| 2026-05-07 11:54 | 51.76796 | -0.54855 | 13014 ft | 336 kts | 237° |
| 2026-05-07 11:55 | 51.76149 | -0.56450 | 13281 ft | 337 kts | 236° |
| 2026-05-07 11:55 | 51.74908 | -0.59504 | 13843 ft | 340 kts | 236° |
| 2026-05-07 11:55 | 51.73606 | -0.62702 | 14531 ft | 342 kts | 236° |
| 2026-05-07 11:55 | 51.72298 | -0.65906 | 15201 ft | 344 kts | 236° |
| 2026-05-07 11:56 | 51.70989 | -0.69119 | 15857 ft | 347 kts | 236° |
| 2026-05-07 11:56 | 51.69652 | -0.72378 | 16493 ft | 350 kts | 236° |
| 2026-05-07 11:56 | 51.68308 | -0.75666 | 17118 ft | 353 kts | 236° |
| 2026-05-07 11:56 | 51.66951 | -0.78972 | 17734 ft | 355 kts | 235° |
| 2026-05-07 11:57 | 51.65333 | -0.81851 | 18271 ft | 357 kts | 218° |
| 2026-05-07 11:57 | 51.63151 | -0.83780 | 18817 ft | 361 kts | 199° |
| 2026-05-07 11:57 | 51.60678 | -0.84479 | 19320 ft | 366 kts | 181° |
| 2026-05-07 11:57 | 51.58127 | -0.84238 | 19848 ft | 369 kts | 175° |
| 2026-05-07 11:58 | 51.55549 | -0.83837 | 20353 ft | 373 kts | 175° |
| 2026-05-07 11:58 | 51.53024 | -0.83476 | 20848 ft | 375 kts | 175° |
| 2026-05-07 11:58 | 51.50431 | -0.83136 | 21348 ft | 378 kts | 176° |
| 2026-05-07 11:58 | 51.47782 | -0.82808 | 21827 ft | 381 kts | 176° |
| 2026-05-07 11:59 | 51.45129 | -0.82492 | 22300 ft | 383 kts | 176° |
| 2026-05-07 11:59 | 51.42502 | -0.82182 | 22745 ft | 387 kts | 176° |
| 2026-05-07 11:59 | 51.39764 | -0.81863 | 23206 ft | 389 kts | 176° |
| 2026-05-07 11:59 | 51.37055 | -0.81548 | 23643 ft | 392 kts | 176° |
| 2026-05-07 12:00 | 51.34323 | -0.81234 | 24071 ft | 395 kts | 176° |
| 2026-05-07 12:00 | 51.31574 | -0.80918 | 24496 ft | 397 kts | 176° |
| 2026-05-07 12:00 | 51.28809 | -0.80600 | 24909 ft | 399 kts | 176° |
| 2026-05-07 12:00 | 51.26026 | -0.80279 | 25309 ft | 402 kts | 176° |
| 2026-05-07 12:01 | 51.23234 | -0.79960 | 25681 ft | 404 kts | 176° |
| 2026-05-07 12:01 | 51.20418 | -0.79640 | 26035 ft | 407 kts | 176° |
| 2026-05-07 12:01 | 51.17585 | -0.79314 | 26387 ft | 409 kts | 176° |
| 2026-05-07 12:01 | 51.14741 | -0.78987 | 26753 ft | 411 kts | 176° |
| 2026-05-07 12:02 | 51.11879 | -0.78657 | 27106 ft | 413 kts | 176° |
| 2026-05-07 12:02 | 51.09984 | -0.78440 | 27332 ft | 414 kts | 176° |
| 2026-05-07 12:02 | 51.07095 | -0.78110 | 27684 ft | 416 kts | 176° |
| 2026-05-07 12:02 | 51.04211 | -0.77607 | 27981 ft | 419 kts | 167° |
| 2026-05-07 12:03 | 51.01472 | -0.76045 | 28250 ft | 422 kts | 154° |
| 2026-05-07 12:03 | 50.98877 | -0.73843 | 28571 ft | 423 kts | 151° |
| 2026-05-07 12:03 | 50.96309 | -0.71585 | 28863 ft | 425 kts | 152° |
| 2026-05-07 12:03 | 50.93693 | -0.69315 | 29147 ft | 427 kts | 152° |
| 2026-05-07 12:04 | 50.91066 | -0.67072 | 29417 ft | 429 kts | 152° |
| 2026-05-07 12:04 | 50.88432 | -0.64846 | 29700 ft | 431 kts | 152° |
| 2026-05-07 12:05 | 50.88280 | -0.64718 | 29714 ft | 431 kts | 152° |
| 2026-05-07 12:05 | 50.86037 | -0.62837 | 29925 ft | 433 kts | 152° |
| 2026-05-07 12:05 | 50.83377 | -0.60597 | 30211 ft | 434 kts | 152° |
| 2026-05-07 12:05 | 50.80714 | -0.58357 | 30465 ft | 435 kts | 152° |
| 2026-05-07 12:06 | 50.78031 | -0.56103 | 30706 ft | 437 kts | 152° |
| 2026-05-07 12:06 | 50.75338 | -0.53843 | 30957 ft | 438 kts | 153° |
| 2026-05-07 12:06 | 50.72650 | -0.51585 | 31253 ft | 438 kts | 152° |
| 2026-05-07 12:06 | 50.69997 | -0.49376 | 31542 ft | 437 kts | 153° |
| 2026-05-07 12:07 | 50.67272 | -0.47118 | 31851 ft | 436 kts | 153° |
| 2026-05-07 12:07 | 50.64630 | -0.44908 | 32121 ft | 436 kts | 153° |
| 2026-05-07 12:07 | 50.61912 | -0.42639 | 32388 ft | 435 kts | 153° |
| 2026-05-07 12:07 | 50.59236 | -0.40419 | 32658 ft | 434 kts | 153° |
| 2026-05-07 12:08 | 50.56601 | -0.38238 | 32912 ft | 434 kts | 153° |
| 2026-05-07 12:08 | 50.53929 | -0.36025 | 33090 ft | 434 kts | 153° |
| 2026-05-07 12:08 | 50.51259 | -0.33815 | 33110 ft | 434 kts | 153° |
| 2026-05-07 12:09 | 50.45924 | -0.29402 | 33089 ft | 434 kts | 153° |
| 2026-05-07 12:09 | 50.40579 | -0.25005 | 33081 ft | 434 kts | 154° |
| 2026-05-07 12:10 | 50.35226 | -0.20604 | 33081 ft | 434 kts | 154° |
| 2026-05-07 12:10 | 50.29883 | -0.16215 | 33080 ft | 434 kts | 154° |
| 2026-05-07 12:11 | 50.24537 | -0.11841 | 33079 ft | 434 kts | 154° |
| 2026-05-07 12:11 | 50.19187 | -0.07466 | 33082 ft | 434 kts | 154° |
| 2026-05-07 12:12 | 50.13837 | -0.03113 | 33080 ft | 434 kts | 154° |
| 2026-05-07 12:12 | 50.08334 | 0.00704 | 33076 ft | 432 kts | 165° |
| 2026-05-07 12:13 | 50.02525 | 0.03027 | 33080 ft | 431 kts | 168° |
| 2026-05-07 12:13 | 49.96700 | 0.05270 | 33082 ft | 432 kts | 168° |
| 2026-05-07 12:14 | 49.90972 | 0.07512 | 33072 ft | 432 kts | 168° |
| 2026-05-07 12:14 | 49.85155 | 0.09783 | 33071 ft | 432 kts | 168° |
| 2026-05-07 12:15 | 49.79328 | 0.12086 | 33071 ft | 432 kts | 168° |
| 2026-05-07 12:15 | 49.73505 | 0.14358 | 33071 ft | 432 kts | 168° |
| 2026-05-07 12:16 | 49.67681 | 0.16627 | 33076 ft | 432 kts | 168° |
| 2026-05-07 12:16 | 49.61863 | 0.18968 | 33078 ft | 432 kts | 167° |
| 2026-05-07 12:17 | 49.56051 | 0.21328 | 33080 ft | 432 kts | 168° |
| 2026-05-07 12:17 | 49.50238 | 0.23646 | 33082 ft | 432 kts | 168° |
| 2026-05-07 12:18 | 49.44412 | 0.25961 | 33073 ft | 432 kts | 168° |
| 2026-05-07 12:18 | 49.38636 | 0.28263 | 33063 ft | 432 kts | 168° |
| 2026-05-07 12:19 | 49.32813 | 0.30588 | 33057 ft | 432 kts | 168° |
| 2026-05-07 12:19 | 49.27004 | 0.32966 | 33055 ft | 432 kts | 167° |
| 2026-05-07 12:20 | 49.21208 | 0.35433 | 33055 ft | 432 kts | 167° |
| 2026-05-07 12:20 | 49.15411 | 0.37886 | 33058 ft | 432 kts | 167° |
| 2026-05-07 12:21 | 49.09611 | 0.40313 | 33061 ft | 432 kts | 167° |
| 2026-05-07 12:21 | 49.03811 | 0.42741 | 33062 ft | 433 kts | 167° |
| 2026-05-07 12:22 | 48.98008 | 0.45158 | 33063 ft | 432 kts | 167° |
| 2026-05-07 12:22 | 48.92213 | 0.47576 | 33061 ft | 432 kts | 167° |
| 2026-05-07 12:23 | 48.86417 | 0.49983 | 33071 ft | 432 kts | 167° |
| 2026-05-07 12:23 | 48.80617 | 0.52388 | 33066 ft | 432 kts | 167° |
| 2026-05-07 12:24 | 48.74807 | 0.54743 | 33068 ft | 432 kts | 168° |
| 2026-05-07 12:24 | 48.68993 | 0.57012 | 33072 ft | 432 kts | 168° |
| 2026-05-07 12:25 | 48.63168 | 0.59295 | 33060 ft | 432 kts | 168° |
| 2026-05-07 12:25 | 48.57348 | 0.61571 | 33066 ft | 432 kts | 168° |
| 2026-05-07 12:26 | 48.51528 | 0.63818 | 33056 ft | 432 kts | 168° |
| 2026-05-07 12:26 | 48.45752 | 0.66155 | 33058 ft | 432 kts | 167° |
| 2026-05-07 12:27 | 48.39945 | 0.68521 | 33054 ft | 432 kts | 167° |
| 2026-05-07 12:27 | 48.34098 | 0.70899 | 33053 ft | 432 kts | 167° |
| 2026-05-07 12:28 | 48.28295 | 0.73249 | 33058 ft | 433 kts | 167° |
| 2026-05-07 12:28 | 48.22477 | 0.75585 | 33060 ft | 432 kts | 167° |
| 2026-05-07 12:29 | 48.16654 | 0.77862 | 33058 ft | 432 kts | 167° |
| 2026-05-07 12:29 | 48.10877 | 0.80132 | 33060 ft | 432 kts | 167° |
| 2026-05-07 12:30 | 48.05056 | 0.82430 | 33059 ft | 433 kts | 167° |
| 2026-05-07 12:30 | 47.99236 | 0.84710 | 33059 ft | 433 kts | 168° |
| 2026-05-07 12:31 | 47.93382 | 0.86996 | 33057 ft | 433 kts | 168° |
| 2026-05-07 12:31 | 47.87579 | 0.89254 | 33050 ft | 433 kts | 168° |
| 2026-05-07 12:32 | 47.81740 | 0.91509 | 33051 ft | 433 kts | 168° |
| 2026-05-07 12:32 | 47.75908 | 0.93755 | 33049 ft | 433 kts | 168° |
| 2026-05-07 12:33 | 47.67154 | 0.97132 | 33053 ft | 434 kts | 168° |
| 2026-05-07 12:33 | 47.61319 | 0.99383 | 33048 ft | 433 kts | 168° |
| 2026-05-07 12:34 | 47.55485 | 1.01626 | 33050 ft | 433 kts | 168° |
| 2026-05-07 12:34 | 47.49649 | 1.03875 | 33050 ft | 433 kts | 168° |
| 2026-05-07 12:35 | 47.43807 | 1.06040 | 33048 ft | 432 kts | 172° |
| 2026-05-07 12:35 | 47.37862 | 1.06435 | 33051 ft | 427 kts | 184° |
| 2026-05-07 12:36 | 47.31914 | 1.06230 | 33050 ft | 427 kts | 184° |
| 2026-05-07 12:36 | 47.25970 | 1.06062 | 33052 ft | 428 kts | 184° |
| 2026-05-07 12:37 | 47.20009 | 1.05927 | 33051 ft | 428 kts | 184° |
| 2026-05-07 12:37 | 47.14060 | 1.05786 | 33050 ft | 427 kts | 184° |
| 2026-05-07 12:38 | 47.09154 | 1.05679 | 33059 ft | 428 kts | 184° |
| 2026-05-07 12:38 | 47.03199 | 1.05534 | 33049 ft | 427 kts | 184° |
| 2026-05-07 12:39 | 46.96302 | 1.05270 | 33040 ft | 427 kts | 185° |
| 2026-05-07 12:39 | 46.91325 | 1.05057 | 33043 ft | 427 kts | 185° |
| 2026-05-07 12:40 | 46.85393 | 1.04794 | 33043 ft | 426 kts | 185° |
| 2026-05-07 12:40 | 46.79468 | 1.04538 | 33037 ft | 426 kts | 185° |
| 2026-05-07 12:41 | 46.73540 | 1.04284 | 33027 ft | 426 kts | 185° |
| 2026-05-07 12:41 | 46.67656 | 1.04041 | 33030 ft | 426 kts | 185° |
| 2026-05-07 12:42 | 46.61695 | 1.03792 | 33030 ft | 426 kts | 185° |
| 2026-05-07 12:42 | 46.55783 | 1.03532 | 33031 ft | 425 kts | 185° |
| 2026-05-07 12:43 | 46.49868 | 1.03895 | 33017 ft | 430 kts | 173° |
| 2026-05-07 12:43 | 46.44044 | 1.05833 | 33021 ft | 432 kts | 170° |
| 2026-05-07 12:44 | 46.38191 | 1.07842 | 33020 ft | 432 kts | 171° |
| 2026-05-07 12:44 | 46.32346 | 1.09802 | 33019 ft | 432 kts | 171° |
| 2026-05-07 12:45 | 46.26477 | 1.11754 | 33021 ft | 432 kts | 171° |
| 2026-05-07 12:45 | 46.20623 | 1.13688 | 33022 ft | 432 kts | 171° |
| 2026-05-07 12:46 | 46.14759 | 1.15620 | 33020 ft | 432 kts | 171° |
| 2026-05-07 12:46 | 46.08891 | 1.17559 | 33017 ft | 432 kts | 171° |
| 2026-05-07 12:47 | 46.03027 | 1.19501 | 33021 ft | 432 kts | 171° |
| 2026-05-07 12:47 | 45.97171 | 1.21432 | 33019 ft | 432 kts | 171° |
| 2026-05-07 12:48 | 45.91324 | 1.23351 | 33019 ft | 430 kts | 171° |
| 2026-05-07 12:48 | 45.85486 | 1.25260 | 33021 ft | 430 kts | 171° |
| 2026-05-07 12:49 | 45.79663 | 1.27158 | 33019 ft | 430 kts | 172° |
| 2026-05-07 12:49 | 45.73819 | 1.29060 | 33021 ft | 430 kts | 171° |
| 2026-05-07 12:50 | 45.67976 | 1.30970 | 33021 ft | 430 kts | 171° |
| 2026-05-07 12:50 | 45.62142 | 1.32871 | 33019 ft | 430 kts | 172° |
| 2026-05-07 12:51 | 45.56339 | 1.34742 | 33019 ft | 430 kts | 172° |
| 2026-05-07 12:51 | 45.50469 | 1.36644 | 33016 ft | 429 kts | 172° |
| 2026-05-07 12:52 | 45.44644 | 1.38523 | 33011 ft | 430 kts | 172° |
| 2026-05-07 12:52 | 45.38849 | 1.40392 | 33011 ft | 430 kts | 171° |
| 2026-05-07 12:53 | 45.33029 | 1.42265 | 33013 ft | 429 kts | 172° |
| 2026-05-07 12:53 | 45.27202 | 1.44133 | 33018 ft | 429 kts | 172° |
| 2026-05-07 12:54 | 45.21386 | 1.45993 | 33013 ft | 428 kts | 172° |
| 2026-05-07 12:54 | 45.15579 | 1.47852 | 33008 ft | 428 kts | 172° |
| 2026-05-07 12:55 | 45.09772 | 1.49700 | 33001 ft | 428 kts | 172° |
| 2026-05-07 12:55 | 45.03969 | 1.51545 | 33004 ft | 427 kts | 172° |
| 2026-05-07 12:56 | 44.98163 | 1.53390 | 33002 ft | 427 kts | 172° |
| 2026-05-07 12:56 | 44.92391 | 1.55214 | 33006 ft | 426 kts | 172° |
| 2026-05-07 12:57 | 44.86607 | 1.57042 | 33012 ft | 425 kts | 172° |
| 2026-05-07 12:57 | 44.80835 | 1.58865 | 33010 ft | 425 kts | 172° |
| 2026-05-07 12:58 | 44.75067 | 1.60684 | 33012 ft | 424 kts | 172° |
| 2026-05-07 12:58 | 44.69306 | 1.62492 | 33012 ft | 424 kts | 172° |
| 2026-05-07 12:59 | 44.63553 | 1.64293 | 33010 ft | 423 kts | 172° |
| 2026-05-07 12:59 | 44.57805 | 1.66093 | 33011 ft | 423 kts | 172° |
| 2026-05-07 13:00 | 44.52056 | 1.67887 | 33012 ft | 423 kts | 172° |
| 2026-05-07 13:00 | 44.46325 | 1.69678 | 33015 ft | 422 kts | 172° |
| 2026-05-07 13:01 | 44.40585 | 1.71462 | 33010 ft | 422 kts | 172° |
| 2026-05-07 13:01 | 44.34856 | 1.73240 | 33009 ft | 422 kts | 172° |
| 2026-05-07 13:02 | 44.29119 | 1.74969 | 33011 ft | 419 kts | 175° |
| 2026-05-07 13:02 | 44.23405 | 1.76259 | 33009 ft | 419 kts | 176° |
| 2026-05-07 13:03 | 44.17616 | 1.77533 | 33009 ft | 419 kts | 176° |
| 2026-05-07 13:03 | 44.11893 | 1.78796 | 33009 ft | 419 kts | 176° |
| 2026-05-07 13:04 | 44.06144 | 1.80058 | 33011 ft | 418 kts | 176° |
| 2026-05-07 13:04 | 44.00400 | 1.81323 | 33009 ft | 418 kts | 176° |
| 2026-05-07 13:05 | 43.94647 | 1.82496 | 33008 ft | 415 kts | 180° |
| 2026-05-07 13:05 | 43.88884 | 1.83076 | 33008 ft | 415 kts | 181° |
| 2026-05-07 13:06 | 43.83129 | 1.83622 | 33010 ft | 414 kts | 181° |
| 2026-05-07 13:06 | 43.77368 | 1.84178 | 33010 ft | 415 kts | 181° |
| 2026-05-07 13:07 | 43.71615 | 1.84737 | 33011 ft | 414 kts | 180° |
| 2026-05-07 13:07 | 43.65864 | 1.85293 | 33011 ft | 414 kts | 181° |
| 2026-05-07 13:08 | 43.60120 | 1.85844 | 33010 ft | 414 kts | 181° |
| 2026-05-07 13:08 | 43.54368 | 1.86400 | 33013 ft | 414 kts | 181° |
| 2026-05-07 13:09 | 43.48610 | 1.86950 | 33001 ft | 414 kts | 180° |
| 2026-05-07 13:09 | 43.42868 | 1.87501 | 33001 ft | 414 kts | 181° |
| 2026-05-07 13:10 | 43.37121 | 1.88053 | 32997 ft | 414 kts | 181° |
| 2026-05-07 13:10 | 43.31398 | 1.88598 | 32987 ft | 413 kts | 181° |
| 2026-05-07 13:11 | 43.25661 | 1.89147 | 32994 ft | 413 kts | 181° |
| 2026-05-07 13:11 | 43.19932 | 1.89694 | 32983 ft | 412 kts | 181° |
| 2026-05-07 13:12 | 43.14222 | 1.90238 | 32965 ft | 410 kts | 181° |
| 2026-05-07 13:12 | 43.08539 | 1.90779 | 32972 ft | 410 kts | 181° |
| 2026-05-07 13:13 | 43.02834 | 1.91320 | 32976 ft | 412 kts | 181° |
| 2026-05-07 13:13 | 42.97171 | 1.91862 | 32972 ft | 408 kts | 181° |
| 2026-05-07 13:14 | 42.91563 | 1.92395 | 32966 ft | 403 kts | 181° |
| 2026-05-07 13:14 | 42.85890 | 1.92923 | 32975 ft | 410 kts | 181° |
| 2026-05-07 13:15 | 42.80197 | 1.93465 | 32977 ft | 410 kts | 181° |
| 2026-05-07 13:15 | 42.77372 | 1.93733 | 32662 ft | 406 kts | 181° |
| 2026-05-07 13:15 | 42.74565 | 1.93994 | 32384 ft | 406 kts | 181° |
| 2026-05-07 13:16 | 42.71726 | 1.94259 | 32122 ft | 407 kts | 181° |
| 2026-05-07 13:16 | 42.68902 | 1.94522 | 31874 ft | 408 kts | 181° |
| 2026-05-07 13:16 | 42.66068 | 1.94913 | 31546 ft | 412 kts | 177° |
| 2026-05-07 13:16 | 42.63236 | 1.95473 | 30912 ft | 411 kts | 176° |
| 2026-05-07 13:17 | 42.60408 | 1.96056 | 30269 ft | 411 kts | 176° |
| 2026-05-07 13:17 | 42.57580 | 1.96642 | 29625 ft | 410 kts | 176° |
| 2026-05-07 13:17 | 42.54768 | 1.97217 | 28977 ft | 408 kts | 176° |
| 2026-05-07 13:17 | 42.51962 | 1.97785 | 28353 ft | 407 kts | 176° |
| 2026-05-07 13:18 | 42.49170 | 1.98349 | 27732 ft | 405 kts | 176° |
| 2026-05-07 13:18 | 42.46384 | 1.98911 | 27127 ft | 404 kts | 176° |
| 2026-05-07 13:18 | 42.43617 | 1.99465 | 26498 ft | 402 kts | 176° |
| 2026-05-07 13:18 | 42.40852 | 2.00018 | 25875 ft | 400 kts | 175° |
| 2026-05-07 13:19 | 42.38105 | 2.00543 | 25272 ft | 397 kts | 178° |
| 2026-05-07 13:19 | 42.35380 | 2.00491 | 24743 ft | 386 kts | 191° |
| 2026-05-07 13:19 | 42.32783 | 1.99811 | 24419 ft | 376 kts | 194° |
| 2026-05-07 13:19 | 42.30259 | 1.99045 | 24129 ft | 366 kts | 195° |
| 2026-05-07 13:20 | 42.27810 | 1.98306 | 23864 ft | 359 kts | 195° |
| 2026-05-07 13:20 | 42.25370 | 1.97577 | 23605 ft | 357 kts | 194° |
| 2026-05-07 13:20 | 42.22938 | 1.96860 | 23345 ft | 358 kts | 194° |
| 2026-05-07 13:20 | 42.20509 | 1.96152 | 23094 ft | 357 kts | 194° |
| 2026-05-07 13:21 | 42.18081 | 1.95446 | 22847 ft | 356 kts | 194° |
| 2026-05-07 13:21 | 42.15693 | 1.94752 | 22600 ft | 355 kts | 194° |
| 2026-05-07 13:21 | 42.13284 | 1.94050 | 22291 ft | 353 kts | 194° |
| 2026-05-07 13:21 | 42.10879 | 1.93352 | 21795 ft | 352 kts | 194° |
| 2026-05-07 13:22 | 42.08500 | 1.92663 | 21243 ft | 349 kts | 194° |
| 2026-05-07 13:22 | 42.06128 | 1.91976 | 20695 ft | 347 kts | 194° |
| 2026-05-07 13:22 | 42.03775 | 1.91296 | 20163 ft | 345 kts | 194° |
| 2026-05-07 13:22 | 42.01434 | 1.90620 | 19646 ft | 344 kts | 194° |
| 2026-05-07 13:23 | 41.99099 | 1.89947 | 19145 ft | 342 kts | 194° |
| 2026-05-07 13:23 | 41.96784 | 1.89280 | 18671 ft | 341 kts | 193° |
| 2026-05-07 13:23 | 41.94461 | 1.88610 | 18215 ft | 339 kts | 193° |
| 2026-05-07 13:23 | 41.92200 | 1.87960 | 17757 ft | 338 kts | 193° |
| 2026-05-07 13:24 | 41.89870 | 1.87289 | 17292 ft | 336 kts | 193° |
| 2026-05-07 13:24 | 41.87595 | 1.86635 | 16840 ft | 334 kts | 193° |
| 2026-05-07 13:24 | 41.85327 | 1.85984 | 16395 ft | 331 kts | 193° |
| 2026-05-07 13:24 | 41.83077 | 1.85339 | 15950 ft | 330 kts | 193° |
| 2026-05-07 13:25 | 41.80845 | 1.84698 | 15507 ft | 327 kts | 193° |
| 2026-05-07 13:25 | 41.78624 | 1.84060 | 14997 ft | 325 kts | 193° |
| 2026-05-07 13:25 | 41.76416 | 1.83426 | 14514 ft | 324 kts | 193° |
| 2026-05-07 13:25 | 41.74226 | 1.82799 | 14106 ft | 320 kts | 193° |
| 2026-05-07 13:26 | 41.72790 | 1.82389 | 13843 ft | 316 kts | 193° |
| 2026-05-07 13:26 | 41.70660 | 1.81780 | 13446 ft | 310 kts | 193° |
| 2026-05-07 13:26 | 41.68573 | 1.81183 | 13070 ft | 303 kts | 193° |
| 2026-05-07 13:26 | 41.66532 | 1.80600 | 12684 ft | 298 kts | 193° |
| 2026-05-07 13:27 | 41.64523 | 1.80026 | 12299 ft | 293 kts | 192° |
| 2026-05-07 13:27 | 41.62536 | 1.79458 | 11930 ft | 290 kts | 192° |
| 2026-05-07 13:27 | 41.60567 | 1.78902 | 11577 ft | 289 kts | 192° |
| 2026-05-07 13:27 | 41.58602 | 1.78345 | 11240 ft | 289 kts | 192° |
| 2026-05-07 13:28 | 41.56638 | 1.77787 | 10889 ft | 288 kts | 193° |
| 2026-05-07 13:28 | 41.55059 | 1.77338 | 10593 ft | 287 kts | 193° |
| 2026-05-07 13:28 | 41.53107 | 1.76780 | 10247 ft | 287 kts | 193° |
| 2026-05-07 13:28 | 41.51160 | 1.76223 | 9916 ft | 286 kts | 193° |
| 2026-05-07 13:29 | 41.49212 | 1.75668 | 9585 ft | 286 kts | 193° |
| 2026-05-07 13:29 | 41.47271 | 1.75116 | 9249 ft | 285 kts | 193° |
| 2026-05-07 13:29 | 41.45330 | 1.74567 | 8932 ft | 282 kts | 193° |
| 2026-05-07 13:29 | 41.43429 | 1.74027 | 8605 ft | 276 kts | 193° |
| 2026-05-07 13:30 | 41.41571 | 1.73503 | 8283 ft | 270 kts | 193° |
| 2026-05-07 13:30 | 41.39753 | 1.72991 | 7969 ft | 264 kts | 193° |
| 2026-05-07 13:30 | 41.37977 | 1.72490 | 7675 ft | 257 kts | 192° |
| 2026-05-07 13:30 | 41.36250 | 1.72003 | 7377 ft | 251 kts | 192° |
| 2026-05-07 13:31 | 41.34569 | 1.71534 | 7078 ft | 243 kts | 190° |
| 2026-05-07 13:31 | 41.32915 | 1.71528 | 6760 ft | 234 kts | 167° |
| 2026-05-07 13:31 | 41.31455 | 1.72343 | 6420 ft | 223 kts | 146° |
| 2026-05-07 13:31 | 41.30240 | 1.73541 | 6197 ft | 216 kts | 142° |
| 2026-05-07 13:32 | 41.29084 | 1.74768 | 5964 ft | 208 kts | 142° |
| 2026-05-07 13:32 | 41.27968 | 1.75954 | 5658 ft | 203 kts | 141° |
| 2026-05-07 13:32 | 41.26875 | 1.77112 | 5342 ft | 200 kts | 142° |
| 2026-05-07 13:32 | 41.25795 | 1.78254 | 5019 ft | 197 kts | 142° |
| 2026-05-07 13:33 | 41.24729 | 1.79375 | 4689 ft | 194 kts | 142° |
| 2026-05-07 13:33 | 41.23666 | 1.80486 | 4369 ft | 194 kts | 142° |
| 2026-05-07 13:33 | 41.22658 | 1.81651 | 4020 ft | 191 kts | 131° |
| 2026-05-07 13:33 | 41.22087 | 1.83184 | 3719 ft | 185 kts | 99° |
| 2026-05-07 13:34 | 41.22146 | 1.84889 | 3516 ft | 186 kts | 81° |
| 2026-05-07 13:34 | 41.22970 | 1.88144 | 3075 ft | 186 kts | 69° |
| 2026-05-07 13:34 | 41.23497 | 1.89704 | 2833 ft | 185 kts | 68° |
| 2026-05-07 13:35 | 41.24019 | 1.91232 | 2577 ft | 178 kts | 68° |
| 2026-05-07 13:35 | 41.24520 | 1.92697 | 2381 ft | 173 kts | 68° |
| 2026-05-07 13:35 | 41.25015 | 1.94143 | 2157 ft | 172 kts | 68° |
| 2026-05-07 13:35 | 41.25510 | 1.95589 | 1921 ft | 170 kts | 68° |
| 2026-05-07 13:36 | 41.25983 | 1.96970 | 1713 ft | 160 kts | 68° |
| 2026-05-07 13:36 | 41.26441 | 1.98308 | 1480 ft | 158 kts | 68° |
| 2026-05-07 13:36 | 41.26891 | 1.99622 | 1272 ft | 150 kts | 68° |
| 2026-05-07 13:36 | 41.27293 | 2.00800 | 1046 ft | 135 kts | 68° |
| 2026-05-07 13:37 | 41.27680 | 2.01932 | 878 ft | 135 kts | 68° |
| 2026-05-07 13:37 | 41.28070 | 2.03070 | 686 ft | 137 kts | 68° |
| 2026-05-07 13:37 | 41.28461 | 2.04233 | 459 ft | 138 kts | 69° |
| 2026-05-07 13:37 | 41.28858 | 2.05394 | 281 ft | 144 kts | 68° |
| 2026-05-07 13:38 | 41.29283 | 2.06628 | 146 ft | 148 kts | 67° |
| 2026-05-07 13:38 | 41.29687 | 2.07822 | 39 ft | 135 kts | 67° |
| 2026-05-07 13:38 | 41.30030 | 2.08853 | 26 ft | 96 kts | 66° |
| 2026-05-07 13:38 | 41.30294 | 2.09408 | 22 ft | 49 kts | 49° |
| 2026-05-07 13:39 | 41.30429 | 2.09529 | 23 ft | 18 kts | 5° |
| 2026-05-07 13:39 | 41.30468 | 2.09517 | 23 ft | 3 kts | 334° |
| 2026-05-07 13:39 | 41.30490 | 2.09494 | 23 ft | 5 kts | 315° |
| 2026-05-07 13:39 | 41.30501 | 2.09438 | 24 ft | 8 kts | 250° |
| 2026-05-07 13:40 | 41.30473 | 2.09365 | 24 ft | 10 kts | 246° |
| 2026-05-07 13:40 | 41.30444 | 2.09274 | 25 ft | 12 kts | 246° |
| 2026-05-07 13:40 | 41.30407 | 2.09168 | 25 ft | 13 kts | 245° |
| 2026-05-07 13:40 | 41.30367 | 2.09048 | 23 ft | 15 kts | 245° |
| 2026-05-07 13:41 | 41.30322 | 2.08918 | 24 ft | 16 kts | 246° |
| 2026-05-07 13:41 | 41.30275 | 2.08777 | 24 ft | 17 kts | 245° |
| 2026-05-07 13:41 | 41.30229 | 2.08643 | 24 ft | 12 kts | 246° |
| 2026-05-07 13:41 | 41.30192 | 2.08532 | 25 ft | 14 kts | 246° |
| 2026-05-07 13:42 | 41.30148 | 2.08410 | 25 ft | 15 kts | 244° |
| 2026-05-07 13:42 | 41.30106 | 2.08286 | 25 ft | 13 kts | 246° |
| 2026-05-07 13:42 | 41.30067 | 2.08170 | 24 ft | 15 kts | 245° |
| 2026-05-07 13:42 | 41.30022 | 2.08041 | 23 ft | 16 kts | 245° |
| 2026-05-07 13:43 | 41.29981 | 2.07921 | 22 ft | 14 kts | 245° |
| 2026-05-07 13:43 | 41.29942 | 2.07805 | 22 ft | 3 kts | 246° |
| 2026-05-07 13:43 | 41.29933 | 2.07779 | 22 ft | 4 kts | 245° |
| 2026-05-07 13:43 | 41.29917 | 2.07733 | 22 ft | 7 kts | 244° |
| 2026-05-07 13:44 | 41.29894 | 2.07665 | 21 ft | 9 kts | 245° |
| 2026-05-07 13:44 | 41.29885 | 2.07581 | 21 ft | 10 kts | 300° |
| 2026-05-07 13:44 | 41.29942 | 2.07528 | 22 ft | 10 kts | 337° |
| 2026-05-07 13:44 | 41.29996 | 2.07532 | 24 ft | 6 kts | 11° |
| 2026-05-07 13:45 | 41.30031 | 2.07530 | 25 ft | 4 kts | 342° |
| 2026-05-07 13:45 | 41.30053 | 2.07518 | 26 ft | 2 kts | 336° |
| 2026-05-07 13:45 | 41.30062 | 2.07513 | 26 ft | 1 kts | 335° |
| 2026-05-07 13:45 | 41.30063 | 2.07512 | 26 ft | 0 kts | 335° |